sensor_id;sensor_type;location;lat;lon;timestamp;temperature;humidity
18225;DHT22;9237;48.590;8.854;2024-02-14T00:00:00;0.70;99.90
18225;DHT22;9237;48.590;8.854;2024-02-14T00:02:28;0.60;99.90
18225;DHT22;9237;48.590;8.854;2024-02-14T00:04:55;0.60;99.90
18225;DHT22;9237;48.590;8.854;2024-02-14T00:07:21;0.50;99.90
18225;DHT22;9237;48.590;8.854;2024-02-14T00:09:48;0.50;99.90
18225;DHT22;9237;48.590;8.854;2024-02-14T00:12:15;0.40;99.90
18225;DHT22;9237;48.590;8.854;2024-02-14T00:14:43;0.40;99.90
18225;DHT22;9237;48.590;8.854;2024-02-14T00:17:10;0.40;99.90
18225;DHT22;9237;48.590;8.854;2024-02-14T00:19:37;0.40;99.90
18225;DHT22;9237;48.590;8.854;2024-02-14T00:22:05;0.40;99.90
18225;DHT22;9237;48.590;8.854;2024-02-14T00:24:32;0.50;99.90
18225;DHT22;9237;48.590;8.854;2024-02-14T00:26:59;0.60;99.90
18225;DHT22;9237;48.590;8.854;2024-02-14T00:29:27;0.60;99.90
18225;DHT22;9237;48.590;8.854;2024-02-14T00:31:56;0.70;99.90
18225;DHT22;9237;48.590;8.854;2024-02-14T00:34:23;0.80;99.90
18225;DHT22;9237;48.590;8.854;2024-02-14T00:36:49;0.80;99.90
18225;DHT22;9237;48.590;8.854;2024-02-14T00:39:16;0.80;99.90
18225;DHT22;9237;48.590;8.854;2024-02-14T00:41:46;0.80;99.90
18225;DHT22;9237;48.590;8.854;2024-02-14T00:44:13;0.90;99.90
18225;DHT22;9237;48.590;8.854;2024-02-14T00:46:42;1.00;99.90
18225;DHT22;9237;48.590;8.854;2024-02-14T00:49:10;1.10;99.90
18225;DHT22;9237;48.590;8.854;2024-02-14T00:51:39;1.10;99.90
18225;DHT22;9237;48.590;8.854;2024-02-14T00:54:05;1.20;99.90
18225;DHT22;9237;48.590;8.854;2024-02-14T00:56:32;1.20;99.90
18225;DHT22;9237;48.590;8.854;2024-02-14T00:58:59;1.20;99.90
18225;DHT22;9237;48.590;8.854;2024-02-14T01:01:26;1.30;99.90
18225;DHT22;9237;48.590;8.854;2024-02-14T01:03:53;1.40;99.90
18225;DHT22;9237;48.590;8.854;2024-02-14T01:06:21;1.40;99.90
18225;DHT22;9237;48.590;8.854;2024-02-14T01:08:48;1.40;99.90
18225;DHT22;9237;48.590;8.854;2024-02-14T01:11:15;1.50;99.90
18225;DHT22;9237;48.590;8.854;2024-02-14T01:13:42;1.50;99.90
18225;DHT22;9237;48.590;8.854;2024-02-14T01:16:09;1.50;99.90
18225;DHT22;9237;48.590;8.854;2024-02-14T01:18:36;1.50;99.90
18225;DHT22;9237;48.590;8.854;2024-02-14T01:21:03;1.50;99.90
18225;DHT22;9237;48.590;8.854;2024-02-14T01:23:31;1.50;99.90
18225;DHT22;9237;48.590;8.854;2024-02-14T01:25:58;1.50;99.90
18225;DHT22;9237;48.590;8.854;2024-02-14T01:28:24;1.60;99.90
18225;DHT22;9237;48.590;8.854;2024-02-14T01:30:52;1.70;99.90
18225;DHT22;9237;48.590;8.854;2024-02-14T01:33:18;1.70;99.90
18225;DHT22;9237;48.590;8.854;2024-02-14T01:35:45;1.80;99.90
18225;DHT22;9237;48.590;8.854;2024-02-14T01:38:12;1.70;99.90
18225;DHT22;9237;48.590;8.854;2024-02-14T01:40:42;1.80;99.90
18225;DHT22;9237;48.590;8.854;2024-02-14T01:43:10;1.80;99.90
18225;DHT22;9237;48.590;8.854;2024-02-14T01:45:37;1.80;99.90
18225;DHT22;9237;48.590;8.854;2024-02-14T01:48:04;1.90;99.90
18225;DHT22;9237;48.590;8.854;2024-02-14T01:50:32;1.90;99.90
18225;DHT22;9237;48.590;8.854;2024-02-14T01:53:00;1.90;99.90
18225;DHT22;9237;48.590;8.854;2024-02-14T01:55:28;1.90;99.90
18225;DHT22;9237;48.590;8.854;2024-02-14T01:57:57;1.90;99.90
18225;DHT22;9237;48.590;8.854;2024-02-14T02:00:24;1.90;99.90
18225;DHT22;9237;48.590;8.854;2024-02-14T02:02:51;1.90;99.90
18225;DHT22;9237;48.590;8.854;2024-02-14T02:05:19;1.80;99.90
18225;DHT22;9237;48.590;8.854;2024-02-14T02:07:46;0.70;99.90
18225;DHT22;9237;48.590;8.854;2024-02-14T02:10:14;1.80;99.90
18225;DHT22;9237;48.590;8.854;2024-02-14T02:12:41;2.10;99.90
18225;DHT22;9237;48.590;8.854;2024-02-14T02:15:09;1.80;99.90
18225;DHT22;9237;48.590;8.854;2024-02-14T02:17:38;1.70;99.90
18225;DHT22;9237;48.590;8.854;2024-02-14T02:20:06;1.70;99.90
18225;DHT22;9237;48.590;8.854;2024-02-14T02:22:34;1.70;99.90
18225;DHT22;9237;48.590;8.854;2024-02-14T02:25:03;1.70;99.90
18225;DHT22;9237;48.590;8.854;2024-02-14T02:27:33;1.70;99.90
18225;DHT22;9237;48.590;8.854;2024-02-14T02:30:03;1.70;99.90
18225;DHT22;9237;48.590;8.854;2024-02-14T02:32:30;1.70;99.90
18225;DHT22;9237;48.590;8.854;2024-02-14T02:34:58;1.90;99.90
18225;DHT22;9237;48.590;8.854;2024-02-14T02:37:26;1.70;99.90
18225;DHT22;9237;48.590;8.854;2024-02-14T02:39:54;1.70;99.90
18225;DHT22;9237;48.590;8.854;2024-02-14T02:42:22;1.70;99.90
18225;DHT22;9237;48.590;8.854;2024-02-14T02:44:50;1.60;99.90
18225;DHT22;9237;48.590;8.854;2024-02-14T02:47:17;1.60;99.90
18225;DHT22;9237;48.590;8.854;2024-02-14T02:49:44;1.50;99.90
18225;DHT22;9237;48.590;8.854;2024-02-14T02:52:11;1.50;99.90
18225;DHT22;9237;48.590;8.854;2024-02-14T02:54:39;1.50;99.90
18225;DHT22;9237;48.590;8.854;2024-02-14T02:57:06;1.50;99.90
18225;DHT22;9237;48.590;8.854;2024-02-14T02:59:34;1.40;99.90
18225;DHT22;9237;48.590;8.854;2024-02-14T03:02:02;1.40;99.90
18225;DHT22;9237;48.590;8.854;2024-02-14T03:04:29;1.40;99.90
18225;DHT22;9237;48.590;8.854;2024-02-14T03:06:57;1.40;99.90
18225;DHT22;9237;48.590;8.854;2024-02-14T03:09:24;1.40;99.90
18225;DHT22;9237;48.590;8.854;2024-02-14T03:11:51;1.40;99.90
18225;DHT22;9237;48.590;8.854;2024-02-14T03:14:19;1.40;99.90
18225;DHT22;9237;48.590;8.854;2024-02-14T03:16:47;1.40;99.90
18225;DHT22;9237;48.590;8.854;2024-02-14T03:19:14;1.40;99.90
18225;DHT22;9237;48.590;8.854;2024-02-14T03:21:41;1.40;99.90
18225;DHT22;9237;48.590;8.854;2024-02-14T03:24:08;1.40;99.90
18225;DHT22;9237;48.590;8.854;2024-02-14T03:26:36;1.30;99.90
18225;DHT22;9237;48.590;8.854;2024-02-14T03:29:04;1.10;99.90
18225;DHT22;9237;48.590;8.854;2024-02-14T03:31:31;1.10;99.90
18225;DHT22;9237;48.590;8.854;2024-02-14T03:33:59;1.00;99.90
18225;DHT22;9237;48.590;8.854;2024-02-14T03:36:26;1.00;99.90
18225;DHT22;9237;48.590;8.854;2024-02-14T03:38:55;1.00;99.90
18225;DHT22;9237;48.590;8.854;2024-02-14T03:41:22;1.00;99.90
18225;DHT22;9237;48.590;8.854;2024-02-14T03:43:49;1.00;99.90
18225;DHT22;9237;48.590;8.854;2024-02-14T03:46:16;1.10;99.90
18225;DHT22;9237;48.590;8.854;2024-02-14T03:48:43;1.20;99.90
18225;DHT22;9237;48.590;8.854;2024-02-14T03:51:14;1.20;99.90
18225;DHT22;9237;48.590;8.854;2024-02-14T03:53:41;1.30;99.90
18225;DHT22;9237;48.590;8.854;2024-02-14T03:56:08;1.30;99.90
18225;DHT22;9237;48.590;8.854;2024-02-14T03:58:35;1.20;99.90
18225;DHT22;9237;48.590;8.854;2024-02-14T04:01:03;1.20;99.90
18225;DHT22;9237;48.590;8.854;2024-02-14T04:03:29;1.10;99.90
18225;DHT22;9237;48.590;8.854;2024-02-14T04:05:56;1.00;99.90
18225;DHT22;9237;48.590;8.854;2024-02-14T04:08:25;1.00;99.90
18225;DHT22;9237;48.590;8.854;2024-02-14T04:10:51;0.90;99.90
18225;DHT22;9237;48.590;8.854;2024-02-14T04:13:19;0.80;99.90
18225;DHT22;9237;48.590;8.854;2024-02-14T04:15:46;0.80;99.90
18225;DHT22;9237;48.590;8.854;2024-02-14T04:18:13;0.70;99.90
18225;DHT22;9237;48.590;8.854;2024-02-14T04:20:41;0.80;99.90
18225;DHT22;9237;48.590;8.854;2024-02-14T04:23:09;0.90;99.90
18225;DHT22;9237;48.590;8.854;2024-02-14T04:25:37;1.00;99.90
18225;DHT22;9237;48.590;8.854;2024-02-14T04:28:04;1.00;99.90
18225;DHT22;9237;48.590;8.854;2024-02-14T04:30:31;0.90;99.90
18225;DHT22;9237;48.590;8.854;2024-02-14T04:32:58;0.70;99.90
18225;DHT22;9237;48.590;8.854;2024-02-14T04:35:25;0.70;99.90
18225;DHT22;9237;48.590;8.854;2024-02-14T04:37:51;0.60;99.90
18225;DHT22;9237;48.590;8.854;2024-02-14T04:40:18;0.50;99.90
18225;DHT22;9237;48.590;8.854;2024-02-14T04:42:46;0.50;99.90
18225;DHT22;9237;48.590;8.854;2024-02-14T04:45:13;0.50;99.90
18225;DHT22;9237;48.590;8.854;2024-02-14T04:47:40;0.40;99.90
18225;DHT22;9237;48.590;8.854;2024-02-14T04:50:08;0.50;99.90
18225;DHT22;9237;48.590;8.854;2024-02-14T04:52:35;0.40;99.90
18225;DHT22;9237;48.590;8.854;2024-02-14T04:55:02;0.50;99.90
18225;DHT22;9237;48.590;8.854;2024-02-14T04:57:29;0.40;99.90
18225;DHT22;9237;48.590;8.854;2024-02-14T04:59:58;0.40;99.90
18225;DHT22;9237;48.590;8.854;2024-02-14T05:02:25;0.50;99.90
18225;DHT22;9237;48.590;8.854;2024-02-14T05:04:52;0.50;99.90
18225;DHT22;9237;48.590;8.854;2024-02-14T05:07:20;0.50;99.90
18225;DHT22;9237;48.590;8.854;2024-02-14T05:09:46;0.60;99.90
18225;DHT22;9237;48.590;8.854;2024-02-14T05:12:15;0.60;99.90
18225;DHT22;9237;48.590;8.854;2024-02-14T05:14:41;0.80;99.90
18225;DHT22;9237;48.590;8.854;2024-02-14T05:17:10;0.80;99.90
18225;DHT22;9237;48.590;8.854;2024-02-14T05:19:36;0.80;99.90
18225;DHT22;9237;48.590;8.854;2024-02-14T05:22:03;0.80;99.90
18225;DHT22;9237;48.590;8.854;2024-02-14T05:24:30;0.80;99.90
18225;DHT22;9237;48.590;8.854;2024-02-14T05:26:57;0.80;99.90
18225;DHT22;9237;48.590;8.854;2024-02-14T05:29:24;0.70;99.90
18225;DHT22;9237;48.590;8.854;2024-02-14T05:31:51;0.70;99.90
18225;DHT22;9237;48.590;8.854;2024-02-14T05:34:22;0.70;99.90
18225;DHT22;9237;48.590;8.854;2024-02-14T05:36:49;0.80;99.90
18225;DHT22;9237;48.590;8.854;2024-02-14T05:39:17;0.80;99.90
18225;DHT22;9237;48.590;8.854;2024-02-14T05:41:44;0.80;99.90
18225;DHT22;9237;48.590;8.854;2024-02-14T05:44:11;0.80;99.90
18225;DHT22;9237;48.590;8.854;2024-02-14T05:46:38;0.80;99.90
18225;DHT22;9237;48.590;8.854;2024-02-14T05:49:05;0.90;99.90
18225;DHT22;9237;48.590;8.854;2024-02-14T05:51:33;0.90;99.90
18225;DHT22;9237;48.590;8.854;2024-02-14T05:53:59;0.90;99.90
18225;DHT22;9237;48.590;8.854;2024-02-14T05:56:26;1.00;99.90
18225;DHT22;9237;48.590;8.854;2024-02-14T05:58:53;1.10;99.90
18225;DHT22;9237;48.590;8.854;2024-02-14T06:01:20;1.20;99.90
18225;DHT22;9237;48.590;8.854;2024-02-14T06:03:47;1.20;99.90
18225;DHT22;9237;48.590;8.854;2024-02-14T06:06:13;1.30;99.90
18225;DHT22;9237;48.590;8.854;2024-02-14T06:08:42;1.30;99.90
18225;DHT22;9237;48.590;8.854;2024-02-14T06:11:08;1.30;99.90
18225;DHT22;9237;48.590;8.854;2024-02-14T06:13:35;1.40;99.90
18225;DHT22;9237;48.590;8.854;2024-02-14T06:16:02;1.40;99.90
18225;DHT22;9237;48.590;8.854;2024-02-14T06:18:29;1.50;99.90
18225;DHT22;9237;48.590;8.854;2024-02-14T06:20:56;1.50;99.90
18225;DHT22;9237;48.590;8.854;2024-02-14T06:23:22;1.50;99.90
18225;DHT22;9237;48.590;8.854;2024-02-14T06:25:51;1.50;99.90
18225;DHT22;9237;48.590;8.854;2024-02-14T06:28:18;1.60;99.90
18225;DHT22;9237;48.590;8.854;2024-02-14T06:30:45;1.70;99.90
18225;DHT22;9237;48.590;8.854;2024-02-14T06:33:12;2.10;99.90
18225;DHT22;9237;48.590;8.854;2024-02-14T06:35:39;1.70;99.90
18225;DHT22;9237;48.590;8.854;2024-02-14T06:38:06;1.70;99.90
18225;DHT22;9237;48.590;8.854;2024-02-14T06:40:33;1.80;99.90
18225;DHT22;9237;48.590;8.854;2024-02-14T06:43:01;1.90;99.90
18225;DHT22;9237;48.590;8.854;2024-02-14T06:45:28;2.00;99.90
18225;DHT22;9237;48.590;8.854;2024-02-14T06:47:55;2.10;99.90
18225;DHT22;9237;48.590;8.854;2024-02-14T06:50:22;2.10;99.90
18225;DHT22;9237;48.590;8.854;2024-02-14T06:52:50;2.10;99.90
18225;DHT22;9237;48.590;8.854;2024-02-14T06:55:17;2.10;99.90
18225;DHT22;9237;48.590;8.854;2024-02-14T06:57:44;2.20;99.90
18225;DHT22;9237;48.590;8.854;2024-02-14T07:00:14;2.10;99.90
18225;DHT22;9237;48.590;8.854;2024-02-14T07:02:40;2.10;99.90
18225;DHT22;9237;48.590;8.854;2024-02-14T07:05:08;1.90;99.90
18225;DHT22;9237;48.590;8.854;2024-02-14T07:07:38;2.00;99.90
18225;DHT22;9237;48.590;8.854;2024-02-14T07:10:05;2.10;99.90
18225;DHT22;9237;48.590;8.854;2024-02-14T07:12:32;2.10;99.90
18225;DHT22;9237;48.590;8.854;2024-02-14T07:15:01;2.20;99.90
18225;DHT22;9237;48.590;8.854;2024-02-14T07:17:31;2.30;99.90
18225;DHT22;9237;48.590;8.854;2024-02-14T07:19:58;2.40;99.90
18225;DHT22;9237;48.590;8.854;2024-02-14T07:22:25;2.50;99.90
18225;DHT22;9237;48.590;8.854;2024-02-14T07:24:51;2.60;99.90
18225;DHT22;9237;48.590;8.854;2024-02-14T07:27:19;2.70;99.90
18225;DHT22;9237;48.590;8.854;2024-02-14T07:29:47;2.90;99.90
18225;DHT22;9237;48.590;8.854;2024-02-14T07:32:14;3.10;99.90
18225;DHT22;9237;48.590;8.854;2024-02-14T07:34:42;3.20;99.90
18225;DHT22;9237;48.590;8.854;2024-02-14T07:37:10;3.40;99.90
18225;DHT22;9237;48.590;8.854;2024-02-14T07:39:36;3.50;99.90
18225;DHT22;9237;48.590;8.854;2024-02-14T07:42:04;3.60;99.90
18225;DHT22;9237;48.590;8.854;2024-02-14T07:44:31;3.70;99.90
18225;DHT22;9237;48.590;8.854;2024-02-14T07:46:58;3.90;99.90
18225;DHT22;9237;48.590;8.854;2024-02-14T07:49:25;4.00;99.90
18225;DHT22;9237;48.590;8.854;2024-02-14T07:51:53;4.10;99.90
18225;DHT22;9237;48.590;8.854;2024-02-14T07:54:19;4.10;99.90
18225;DHT22;9237;48.590;8.854;2024-02-14T07:56:46;4.20;99.90
18225;DHT22;9237;48.590;8.854;2024-02-14T07:59:13;4.30;99.90
18225;DHT22;9237;48.590;8.854;2024-02-14T08:01:40;4.40;99.90
18225;DHT22;9237;48.590;8.854;2024-02-14T08:04:08;4.50;99.90
18225;DHT22;9237;48.590;8.854;2024-02-14T08:06:35;4.70;99.90
18225;DHT22;9237;48.590;8.854;2024-02-14T08:09:03;4.80;99.90
18225;DHT22;9237;48.590;8.854;2024-02-14T08:11:33;4.90;99.90
18225;DHT22;9237;48.590;8.854;2024-02-14T08:14:01;5.10;99.90
18225;DHT22;9237;48.590;8.854;2024-02-14T08:16:27;5.20;99.90
18225;DHT22;9237;48.590;8.854;2024-02-14T08:18:54;5.40;99.90
18225;DHT22;9237;48.590;8.854;2024-02-14T08:21:24;5.50;99.90
18225;DHT22;9237;48.590;8.854;2024-02-14T08:23:51;5.70;99.90
18225;DHT22;9237;48.590;8.854;2024-02-14T08:26:19;5.80;99.90
18225;DHT22;9237;48.590;8.854;2024-02-14T08:28:46;6.10;99.90
18225;DHT22;9237;48.590;8.854;2024-02-14T08:31:13;6.30;99.90
18225;DHT22;9237;48.590;8.854;2024-02-14T08:33:40;6.60;99.90
18225;DHT22;9237;48.590;8.854;2024-02-14T08:36:07;6.80;99.90
18225;DHT22;9237;48.590;8.854;2024-02-14T08:38:35;7.10;99.90
18225;DHT22;9237;48.590;8.854;2024-02-14T08:41:02;7.20;99.90
18225;DHT22;9237;48.590;8.854;2024-02-14T08:43:30;7.30;99.90
18225;DHT22;9237;48.590;8.854;2024-02-14T08:45:57;7.40;99.90
18225;DHT22;9237;48.590;8.854;2024-02-14T08:48:24;7.40;99.90
18225;DHT22;9237;48.590;8.854;2024-02-14T08:50:54;7.40;99.90
18225;DHT22;9237;48.590;8.854;2024-02-14T08:53:21;7.40;99.90
18225;DHT22;9237;48.590;8.854;2024-02-14T08:55:48;7.40;99.90
18225;DHT22;9237;48.590;8.854;2024-02-14T08:58:15;7.40;99.90
18225;DHT22;9237;48.590;8.854;2024-02-14T09:00:43;7.50;99.90
18225;DHT22;9237;48.590;8.854;2024-02-14T09:03:10;7.50;99.90
18225;DHT22;9237;48.590;8.854;2024-02-14T09:05:37;7.50;99.90
18225;DHT22;9237;48.590;8.854;2024-02-14T09:08:05;7.50;99.90
18225;DHT22;9237;48.590;8.854;2024-02-14T09:10:31;7.60;99.90
18225;DHT22;9237;48.590;8.854;2024-02-14T09:12:58;7.60;99.90
18225;DHT22;9237;48.590;8.854;2024-02-14T09:15:26;7.60;99.90
18225;DHT22;9237;48.590;8.854;2024-02-14T09:17:54;7.60;99.90
18225;DHT22;9237;48.590;8.854;2024-02-14T09:20:22;7.80;99.90
18225;DHT22;9237;48.590;8.854;2024-02-14T09:22:49;7.80;99.90
18225;DHT22;9237;48.590;8.854;2024-02-14T09:25:16;7.90;99.90
18225;DHT22;9237;48.590;8.854;2024-02-14T09:27:43;8.10;99.90
18225;DHT22;9237;48.590;8.854;2024-02-14T09:30:13;8.40;99.90
18225;DHT22;9237;48.590;8.854;2024-02-14T09:32:40;8.60;99.90
18225;DHT22;9237;48.590;8.854;2024-02-14T09:35:08;8.80;99.90
18225;DHT22;9237;48.590;8.854;2024-02-14T09:37:35;8.90;99.90
18225;DHT22;9237;48.590;8.854;2024-02-14T09:40:04;8.90;99.90
18225;DHT22;9237;48.590;8.854;2024-02-14T09:42:38;9.00;99.90
18225;DHT22;9237;48.590;8.854;2024-02-14T09:45:06;9.00;99.90
18225;DHT22;9237;48.590;8.854;2024-02-14T09:47:34;9.10;99.90
18225;DHT22;9237;48.590;8.854;2024-02-14T09:50:02;9.10;99.90
18225;DHT22;9237;48.590;8.854;2024-02-14T09:52:33;9.20;99.90
18225;DHT22;9237;48.590;8.854;2024-02-14T09:55:01;9.30;99.90
18225;DHT22;9237;48.590;8.854;2024-02-14T09:57:30;9.40;99.90
18225;DHT22;9237;48.590;8.854;2024-02-14T09:59:58;9.40;99.90
18225;DHT22;9237;48.590;8.854;2024-02-14T10:02:26;9.60;99.90
18225;DHT22;9237;48.590;8.854;2024-02-14T10:04:53;9.90;99.90
18225;DHT22;9237;48.590;8.854;2024-02-14T10:07:20;10.20;99.90
18225;DHT22;9237;48.590;8.854;2024-02-14T10:09:48;10.40;99.90
18225;DHT22;9237;48.590;8.854;2024-02-14T10:12:14;10.60;99.90
18225;DHT22;9237;48.590;8.854;2024-02-14T10:14:41;10.80;99.90
18225;DHT22;9237;48.590;8.854;2024-02-14T10:17:08;11.10;99.90
18225;DHT22;9237;48.590;8.854;2024-02-14T10:19:35;11.20;99.90
18225;DHT22;9237;48.590;8.854;2024-02-14T10:22:02;11.40;99.90
18225;DHT22;9237;48.590;8.854;2024-02-14T10:24:31;11.80;99.90
18225;DHT22;9237;48.590;8.854;2024-02-14T10:27:00;12.00;99.90
18225;DHT22;9237;48.590;8.854;2024-02-14T10:29:27;12.10;99.90
18225;DHT22;9237;48.590;8.854;2024-02-14T10:31:55;12.10;99.90
18225;DHT22;9237;48.590;8.854;2024-02-14T10:34:24;12.20;99.90
18225;DHT22;9237;48.590;8.854;2024-02-14T10:36:53;12.40;99.90
18225;DHT22;9237;48.590;8.854;2024-02-14T10:39:22;12.70;99.90
18225;DHT22;9237;48.590;8.854;2024-02-14T10:41:51;13.00;99.90
18225;DHT22;9237;48.590;8.854;2024-02-14T10:44:20;13.30;99.90
18225;DHT22;9237;48.590;8.854;2024-02-14T10:46:49;13.10;99.90
18225;DHT22;9237;48.590;8.854;2024-02-14T10:49:20;12.90;99.90
18225;DHT22;9237;48.590;8.854;2024-02-14T10:51:48;12.90;99.90
18225;DHT22;9237;48.590;8.854;2024-02-14T10:54:16;12.90;99.90
18225;DHT22;9237;48.590;8.854;2024-02-14T10:56:49;13.00;99.90
18225;DHT22;9237;48.590;8.854;2024-02-14T10:59:21;12.80;99.90
18225;DHT22;9237;48.590;8.854;2024-02-14T11:01:49;12.90;99.90
18225;DHT22;9237;48.590;8.854;2024-02-14T11:04:17;12.70;99.90
18225;DHT22;9237;48.590;8.854;2024-02-14T11:06:45;12.60;99.90
18225;DHT22;9237;48.590;8.854;2024-02-14T11:09:14;12.50;99.90
18225;DHT22;9237;48.590;8.854;2024-02-14T11:11:42;12.50;99.90
18225;DHT22;9237;48.590;8.854;2024-02-14T11:14:09;12.40;99.90
18225;DHT22;9237;48.590;8.854;2024-02-14T11:16:39;12.40;99.90
18225;DHT22;9237;48.590;8.854;2024-02-14T11:19:08;12.20;99.90
18225;DHT22;9237;48.590;8.854;2024-02-14T11:21:36;12.40;99.90
18225;DHT22;9237;48.590;8.854;2024-02-14T11:24:07;12.50;99.90
18225;DHT22;9237;48.590;8.854;2024-02-14T11:26:45;12.60;99.90
18225;DHT22;9237;48.590;8.854;2024-02-14T11:29:14;12.60;99.90
18225;DHT22;9237;48.590;8.854;2024-02-14T11:31:43;12.70;99.90
18225;DHT22;9237;48.590;8.854;2024-02-14T11:34:12;12.70;99.90
18225;DHT22;9237;48.590;8.854;2024-02-14T11:36:40;12.90;99.90
18225;DHT22;9237;48.590;8.854;2024-02-14T11:39:07;12.90;99.90
18225;DHT22;9237;48.590;8.854;2024-02-14T11:41:34;13.00;99.90
18225;DHT22;9237;48.590;8.854;2024-02-14T11:44:03;13.00;99.90
18225;DHT22;9237;48.590;8.854;2024-02-14T11:46:31;12.90;99.90
18225;DHT22;9237;48.590;8.854;2024-02-14T11:49:00;12.80;99.90
18225;DHT22;9237;48.590;8.854;2024-02-14T11:51:28;12.70;99.90
18225;DHT22;9237;48.590;8.854;2024-02-14T11:53:56;12.70;99.90
18225;DHT22;9237;48.590;8.854;2024-02-14T11:56:22;12.80;99.90
18225;DHT22;9237;48.590;8.854;2024-02-14T11:58:51;12.90;99.90
18225;DHT22;9237;48.590;8.854;2024-02-14T12:01:18;12.70;99.90
18225;DHT22;9237;48.590;8.854;2024-02-14T12:03:45;12.60;99.90
18225;DHT22;9237;48.590;8.854;2024-02-14T12:06:13;12.80;99.90
18225;DHT22;9237;48.590;8.854;2024-02-14T12:08:42;12.90;99.90
18225;DHT22;9237;48.590;8.854;2024-02-14T12:11:09;12.70;99.90
18225;DHT22;9237;48.590;8.854;2024-02-14T12:13:36;12.70;99.90
18225;DHT22;9237;48.590;8.854;2024-02-14T12:16:03;12.70;99.90
18225;DHT22;9237;48.590;8.854;2024-02-14T12:18:32;12.70;99.90
18225;DHT22;9237;48.590;8.854;2024-02-14T12:21:06;12.70;99.90
18225;DHT22;9237;48.590;8.854;2024-02-14T12:23:35;12.70;99.90
18225;DHT22;9237;48.590;8.854;2024-02-14T12:26:03;12.60;99.90
18225;DHT22;9237;48.590;8.854;2024-02-14T12:28:31;12.60;99.90
18225;DHT22;9237;48.590;8.854;2024-02-14T12:30:58;12.70;99.90
18225;DHT22;9237;48.590;8.854;2024-02-14T12:33:26;13.00;99.90
18225;DHT22;9237;48.590;8.854;2024-02-14T12:35:54;13.10;99.90
18225;DHT22;9237;48.590;8.854;2024-02-14T12:38:22;13.40;99.90
18225;DHT22;9237;48.590;8.854;2024-02-14T12:40:51;13.60;99.90
18225;DHT22;9237;48.590;8.854;2024-02-14T12:43:19;13.80;99.90
18225;DHT22;9237;48.590;8.854;2024-02-14T12:45:46;13.90;99.90
18225;DHT22;9237;48.590;8.854;2024-02-14T12:48:14;13.60;99.90
18225;DHT22;9237;48.590;8.854;2024-02-14T12:50:48;13.60;99.90
18225;DHT22;9237;48.590;8.854;2024-02-14T12:53:16;13.80;99.90
18225;DHT22;9237;48.590;8.854;2024-02-14T12:55:43;13.70;99.90
18225;DHT22;9237;48.590;8.854;2024-02-14T12:58:11;13.60;99.90
18225;DHT22;9237;48.590;8.854;2024-02-14T13:00:38;13.50;99.90
18225;DHT22;9237;48.590;8.854;2024-02-14T13:03:05;13.50;99.90
18225;DHT22;9237;48.590;8.854;2024-02-14T13:05:31;13.60;99.90
18225;DHT22;9237;48.590;8.854;2024-02-14T13:07:59;13.80;99.90
18225;DHT22;9237;48.590;8.854;2024-02-14T13:10:26;13.90;99.90
18225;DHT22;9237;48.590;8.854;2024-02-14T13:12:53;13.80;99.90
18225;DHT22;9237;48.590;8.854;2024-02-14T13:15:21;13.70;99.90
18225;DHT22;9237;48.590;8.854;2024-02-14T13:17:48;13.50;99.90
18225;DHT22;9237;48.590;8.854;2024-02-14T13:20:15;13.50;99.90
18225;DHT22;9237;48.590;8.854;2024-02-14T13:22:42;13.40;99.90
18225;DHT22;9237;48.590;8.854;2024-02-14T13:25:09;13.30;99.90
18225;DHT22;9237;48.590;8.854;2024-02-14T13:27:36;13.40;99.90
18225;DHT22;9237;48.590;8.854;2024-02-14T13:30:04;13.50;99.90
18225;DHT22;9237;48.590;8.854;2024-02-14T13:32:33;13.60;99.90
18225;DHT22;9237;48.590;8.854;2024-02-14T13:35:00;13.70;99.90
18225;DHT22;9237;48.590;8.854;2024-02-14T13:37:27;13.50;99.90
18225;DHT22;9237;48.590;8.854;2024-02-14T13:39:54;13.50;99.90
18225;DHT22;9237;48.590;8.854;2024-02-14T13:42:21;13.30;99.90
18225;DHT22;9237;48.590;8.854;2024-02-14T13:44:48;13.20;99.90
18225;DHT22;9237;48.590;8.854;2024-02-14T13:47:17;13.20;99.90
18225;DHT22;9237;48.590;8.854;2024-02-14T13:49:46;13.10;99.90
18225;DHT22;9237;48.590;8.854;2024-02-14T13:52:13;13.10;99.90
18225;DHT22;9237;48.590;8.854;2024-02-14T13:54:41;13.10;99.90
18225;DHT22;9237;48.590;8.854;2024-02-14T13:57:07;13.10;99.90
18225;DHT22;9237;48.590;8.854;2024-02-14T13:59:34;13.20;99.90
18225;DHT22;9237;48.590;8.854;2024-02-14T14:02:01;13.30;99.90
18225;DHT22;9237;48.590;8.854;2024-02-14T14:04:28;13.50;99.90
18225;DHT22;9237;48.590;8.854;2024-02-14T14:06:56;13.80;99.90
18225;DHT22;9237;48.590;8.854;2024-02-14T14:09:23;14.10;99.90
18225;DHT22;9237;48.590;8.854;2024-02-14T14:11:50;14.10;99.90
18225;DHT22;9237;48.590;8.854;2024-02-14T14:14:18;14.20;99.90
18225;DHT22;9237;48.590;8.854;2024-02-14T14:16:44;14.20;99.90
18225;DHT22;9237;48.590;8.854;2024-02-14T14:19:11;14.50;99.90
18225;DHT22;9237;48.590;8.854;2024-02-14T14:21:39;14.70;99.90
18225;DHT22;9237;48.590;8.854;2024-02-14T14:24:07;14.70;99.90
18225;DHT22;9237;48.590;8.854;2024-02-14T14:26:34;14.80;99.90
18225;DHT22;9237;48.590;8.854;2024-02-14T14:29:00;14.30;99.90
18225;DHT22;9237;48.590;8.854;2024-02-14T14:31:27;14.50;99.90
18225;DHT22;9237;48.590;8.854;2024-02-14T14:33:54;14.60;99.90
18225;DHT22;9237;48.590;8.854;2024-02-14T14:36:22;14.50;99.90
18225;DHT22;9237;48.590;8.854;2024-02-14T14:38:49;14.60;99.90
18225;DHT22;9237;48.590;8.854;2024-02-14T14:41:17;14.30;99.90
18225;DHT22;9237;48.590;8.854;2024-02-14T14:43:44;14.00;99.90
18225;DHT22;9237;48.590;8.854;2024-02-14T14:46:14;14.00;99.90
18225;DHT22;9237;48.590;8.854;2024-02-14T14:48:40;14.10;99.90
18225;DHT22;9237;48.590;8.854;2024-02-14T14:51:07;14.10;99.90
18225;DHT22;9237;48.590;8.854;2024-02-14T14:53:34;14.00;99.90
18225;DHT22;9237;48.590;8.854;2024-02-14T14:56:01;14.10;99.90
18225;DHT22;9237;48.590;8.854;2024-02-14T14:58:29;14.10;99.90
18225;DHT22;9237;48.590;8.854;2024-02-14T15:00:59;14.10;99.90
18225;DHT22;9237;48.590;8.854;2024-02-14T15:03:29;14.20;99.90
18225;DHT22;9237;48.590;8.854;2024-02-14T15:05:56;14.10;99.90
18225;DHT22;9237;48.590;8.854;2024-02-14T15:08:23;14.20;99.90
18225;DHT22;9237;48.590;8.854;2024-02-14T15:10:51;14.10;99.90
18225;DHT22;9237;48.590;8.854;2024-02-14T15:13:18;13.90;99.90
18225;DHT22;9237;48.590;8.854;2024-02-14T15:15:46;13.80;99.90
18225;DHT22;9237;48.590;8.854;2024-02-14T15:18:14;13.60;99.90
18225;DHT22;9237;48.590;8.854;2024-02-14T15:20:41;13.50;99.90
18225;DHT22;9237;48.590;8.854;2024-02-14T15:23:08;13.50;99.90
18225;DHT22;9237;48.590;8.854;2024-02-14T15:25:35;13.30;99.90
18225;DHT22;9237;48.590;8.854;2024-02-14T15:28:07;13.30;99.90
18225;DHT22;9237;48.590;8.854;2024-02-14T15:30:38;13.20;99.90
18225;DHT22;9237;48.590;8.854;2024-02-14T15:33:23;13.10;99.90
18225;DHT22;9237;48.590;8.854;2024-02-14T15:35:52;13.00;99.90
18225;DHT22;9237;48.590;8.854;2024-02-14T15:38:19;12.90;99.90
18225;DHT22;9237;48.590;8.854;2024-02-14T15:40:46;12.90;99.90
18225;DHT22;9237;48.590;8.854;2024-02-14T15:43:16;12.90;99.90
18225;DHT22;9237;48.590;8.854;2024-02-14T15:45:43;12.80;99.90
18225;DHT22;9237;48.590;8.854;2024-02-14T15:48:09;12.80;99.90
18225;DHT22;9237;48.590;8.854;2024-02-14T15:50:40;12.80;99.90
18225;DHT22;9237;48.590;8.854;2024-02-14T15:53:06;12.70;99.90
18225;DHT22;9237;48.590;8.854;2024-02-14T15:55:33;12.80;99.90